createdAt,value
2022-07-25T00:00:53.383Z,9.757425
2022-07-25T00:01:53.431Z,9.757480
2022-07-25T00:02:53.361Z,9.757501
2022-07-25T00:03:53.384Z,9.757470
2022-07-25T00:04:53.391Z,9.757434
2022-07-25T00:05:53.343Z,9.757466
2022-07-25T00:06:53.327Z,9.757459
2022-07-25T00:07:53.324Z,9.757407
2022-07-25T00:08:53.350Z,9.757414
2022-07-25T00:09:53.307Z,9.757442
2022-07-25T00:10:53.295Z,9.757455
2022-07-25T00:11:53.283Z,9.757421
2022-07-25T00:12:53.273Z,9.757446
2022-07-25T00:13:53.300Z,9.757464
2022-07-25T00:14:53.266Z,9.757467
2022-07-25T00:15:53.279Z,9.757396
2022-07-25T00:16:53.249Z,9.757484
2022-07-25T00:17:53.234Z,9.757462
2022-07-25T00:18:53.268Z,9.757420
2022-07-25T00:19:53.219Z,9.757474
2022-07-25T00:20:53.221Z,9.757467
2022-07-25T00:21:53.203Z,9.757435
2022-07-25T00:22:53.220Z,9.757356
2022-07-25T00:23:53.224Z,9.757439
2022-07-25T00:24:53.176Z,9.757442
2022-07-25T00:25:53.164Z,9.757412
2022-07-25T00:26:53.160Z,9.757378
2022-07-25T00:27:53.151Z,9.757401
2022-07-25T00:28:53.168Z,9.757426
2022-07-25T00:29:53.131Z,9.757473
2022-07-25T00:30:53.187Z,9.757441
2022-07-25T00:31:53.114Z,9.757437
2022-07-25T00:32:53.104Z,9.757425
2022-07-25T00:33:53.131Z,9.757392
2022-07-25T00:34:53.090Z,9.757478
2022-07-25T00:35:53.081Z,9.757447
2022-07-25T00:36:53.071Z,9.757386
2022-07-25T00:37:53.060Z,9.757402
2022-07-25T00:38:53.085Z,9.757524
2022-07-25T00:39:53.041Z,9.757504
2022-07-25T00:40:54.560Z,9.757496
2022-07-25T00:41:53.028Z,9.757465
2022-07-25T00:42:53.018Z,9.757444
2022-07-25T00:43:53.038Z,9.757412
2022-07-25T00:44:53.007Z,9.757452
2022-07-25T00:45:52.998Z,9.757505
2022-07-25T00:46:53.060Z,9.757482
2022-07-25T00:47:52.979Z,9.757463
2022-07-25T00:48:53.071Z,9.757488
2022-07-25T00:49:52.960Z,9.757402
2022-07-25T00:50:52.955Z,9.757400
2022-07-25T00:51:52.942Z,9.757384
2022-07-25T00:52:52.938Z,9.757406
2022-07-25T00:53:52.960Z,9.757455
2022-07-25T00:54:52.924Z,9.757524
2022-07-25T00:55:52.919Z,9.757460
2022-07-25T00:56:52.909Z,9.757435
2022-07-25T00:57:52.901Z,9.757463
2022-07-25T00:58:52.921Z,9.757484
2022-07-25T00:59:52.883Z,9.757434
2022-07-25T01:00:52.873Z,9.757492
2022-07-25T01:01:52.919Z,9.757429
2022-07-25T01:02:52.923Z,9.757410
2022-07-25T01:03:52.876Z,9.757511
2022-07-25T01:04:52.841Z,9.757483
2022-07-25T01:05:53.936Z,9.757511
2022-07-25T01:06:53.828Z,9.757483
2022-07-25T01:07:52.820Z,9.757483
2022-07-25T01:08:52.834Z,9.757542
2022-07-25T01:09:52.801Z,9.757636
2022-07-25T01:10:52.795Z,9.757644
2022-07-25T01:11:52.792Z,9.757596
2022-07-25T01:12:52.772Z,9.757325
2022-07-25T01:13:52.803Z,9.757534
2022-07-25T01:14:52.757Z,9.757619
2022-07-25T01:15:52.790Z,9.757573
2022-07-25T01:16:52.749Z,9.757508
2022-07-25T01:17:52.727Z,9.757549
2022-07-25T01:18:52.752Z,9.757601
2022-07-25T01:19:52.724Z,9.757563
2022-07-25T01:20:52.702Z,9.757508
2022-07-25T01:21:52.713Z,9.757549
2022-07-25T01:22:52.693Z,9.757622
2022-07-25T01:23:52.680Z,9.757560
2022-07-25T01:24:52.713Z,9.757631
2022-07-25T01:25:52.667Z,9.757608
2022-07-25T01:26:59.477Z,9.757463
2022-07-25T01:27:55.523Z,9.757360
2022-07-25T01:28:53.672Z,9.757405
2022-07-25T01:29:52.634Z,9.757511
2022-07-25T01:30:52.676Z,9.757515
2022-07-25T01:31:53.615Z,9.757386
2022-07-25T01:32:52.643Z,9.757436
2022-07-25T01:33:52.599Z,9.757530
2022-07-25T01:34:52.618Z,9.757529
2022-07-25T01:35:52.586Z,9.757618
2022-07-25T01:36:52.573Z,9.757448
2022-07-25T01:37:52.562Z,9.757606
2022-07-25T01:38:54.293Z,9.757894
2022-07-25T01:39:52.584Z,9.757502
2022-07-25T01:40:52.544Z,9.757268
2022-07-25T01:41:52.531Z,9.757322
2022-07-25T01:42:52.526Z,9.757238
2022-07-25T01:43:52.514Z,9.757411
2022-07-25T01:44:52.531Z,9.757504
2022-07-25T01:45:52.565Z,9.757494
2022-07-25T01:46:52.489Z,9.757546
2022-07-25T01:47:52.476Z,9.757560
2022-07-25T01:48:52.541Z,9.757547
2022-07-25T01:49:52.506Z,9.757653
2022-07-25T01:50:52.453Z,9.757556
2022-07-25T01:51:52.448Z,9.757533
2022-07-25T01:52:52.429Z,9.757444
2022-07-25T01:53:52.432Z,9.757442
2022-07-25T01:54:52.454Z,9.757478
2022-07-25T01:55:52.412Z,9.757133
2022-07-25T01:56:52.406Z,9.757389
2022-07-25T01:57:52.390Z,9.757475
2022-07-25T01:58:52.388Z,9.757468
2022-07-25T01:59:52.404Z,9.757355
2022-07-25T02:00:52.368Z,9.757449
2022-07-25T02:01:52.425Z,9.757490
2022-07-25T02:02:52.357Z,9.757471
2022-07-25T02:03:52.342Z,9.757565
2022-07-25T02:04:52.442Z,9.757572
2022-07-25T02:05:52.329Z,9.757622
2022-07-25T02:06:52.323Z,9.757550
2022-07-25T02:07:52.314Z,9.757488
2022-07-25T02:08:52.302Z,9.757499
2022-07-25T02:09:56.662Z,9.757633
2022-07-25T02:10:53.285Z,9.757820
2022-07-25T02:11:52.279Z,9.757872
2022-07-25T02:12:52.272Z,9.757731
2022-07-25T02:13:52.259Z,9.757661
2022-07-25T02:14:52.274Z,9.757808
2022-07-25T02:15:52.240Z,9.757710
2022-07-25T02:16:52.336Z,9.757486
2022-07-25T02:17:52.228Z,9.757433
2022-07-25T02:18:52.218Z,9.757454
2022-07-25T02:19:52.236Z,9.757443
2022-07-25T02:20:52.198Z,9.757548
2022-07-25T02:21:52.197Z,9.757615
2022-07-25T02:22:52.186Z,9.757629
2022-07-25T02:23:52.175Z,9.757709
2022-07-25T02:24:52.203Z,9.757822
2022-07-25T02:25:52.163Z,9.757650
2022-07-25T02:26:52.153Z,9.757432
2022-07-25T02:27:52.151Z,9.757565
2022-07-25T02:28:52.142Z,9.757804
2022-07-25T02:29:52.155Z,9.757685
2022-07-25T02:30:52.159Z,9.757628
2022-07-25T02:31:53.110Z,9.757384
2022-07-25T02:32:52.104Z,9.757444
2022-07-25T02:33:52.091Z,9.757520
2022-07-25T02:34:52.120Z,9.757676
2022-07-25T02:35:52.075Z,9.757628
2022-07-25T02:36:52.071Z,9.757751
2022-07-25T02:37:52.057Z,9.757698
2022-07-25T02:38:52.058Z,9.757757
2022-07-25T02:39:52.079Z,9.757650
2022-07-25T02:40:52.039Z,9.757685
2022-07-25T02:41:52.025Z,9.757662
2022-07-25T02:42:52.016Z,9.757599
2022-07-25T02:43:52.011Z,9.757543
2022-07-25T02:44:52.033Z,9.757584
2022-07-25T02:45:52.100Z,9.757616
2022-07-25T02:46:51.994Z,9.757582
2022-07-25T02:47:51.980Z,9.757639
2022-07-25T02:48:52.061Z,9.757637
2022-07-25T02:49:51.990Z,9.757771
2022-07-25T02:50:51.952Z,9.757731
2022-07-25T02:51:51.941Z,9.757680
2022-07-25T02:52:51.936Z,9.757627
2022-07-25T02:53:57.892Z,9.757766
2022-07-25T02:54:53.955Z,9.757705
2022-07-25T02:55:51.905Z,9.757693
2022-07-25T02:56:51.896Z,9.757637
2022-07-25T02:57:51.887Z,9.757601
2022-07-25T02:58:51.879Z,9.757566
2022-07-25T02:59:51.910Z,9.757456
2022-07-25T03:00:51.911Z,9.757596
2022-07-25T03:01:51.905Z,9.757642
2022-07-25T03:02:51.853Z,9.757633
2022-07-25T03:03:51.913Z,9.757688
2022-07-25T03:04:51.865Z,9.757705
2022-07-25T03:05:51.831Z,9.757656
2022-07-25T03:06:51.811Z,9.757631
2022-07-25T03:07:52.807Z,9.757635
2022-07-25T03:08:51.806Z,9.757670
2022-07-25T03:09:51.836Z,9.757652
2022-07-25T03:10:51.782Z,9.757632
2022-07-25T03:11:51.777Z,9.757545
2022-07-25T03:12:51.771Z,9.757705
2022-07-25T03:13:51.778Z,9.757637
2022-07-25T03:14:51.789Z,9.757681
2022-07-25T03:15:51.743Z,9.757592
2022-07-25T03:16:51.754Z,9.757573
2022-07-25T03:17:51.722Z,9.757450
2022-07-25T03:18:51.717Z,9.757542
2022-07-25T03:19:51.740Z,9.757625
2022-07-25T03:20:51.697Z,9.757522
2022-07-25T03:21:51.690Z,9.757491
2022-07-25T03:22:51.681Z,9.757735
2022-07-25T03:23:52.912Z,9.757857
2022-07-25T03:24:52.703Z,9.757668
2022-07-25T03:25:51.656Z,9.757773
2022-07-25T03:26:51.651Z,9.757727
2022-07-25T03:27:51.646Z,9.757697
2022-07-25T03:28:51.637Z,9.757558
2022-07-25T03:29:51.660Z,9.757610
2022-07-25T03:30:51.630Z,9.757582
2022-07-25T03:31:51.641Z,9.757833
2022-07-25T03:32:51.605Z,9.757784
2022-07-25T03:33:51.593Z,9.757607
2022-07-25T03:34:51.608Z,9.757548
2022-07-25T03:35:51.579Z,9.757408
2022-07-25T03:36:51.563Z,9.757481
2022-07-25T03:37:51.564Z,9.757501
2022-07-25T03:38:51.556Z,9.757492
2022-07-25T03:39:51.574Z,9.757495
2022-07-25T03:40:51.533Z,9.757457
2022-07-25T03:41:51.523Z,9.757609
2022-07-25T03:42:51.508Z,9.757513
2022-07-25T03:43:51.508Z,9.757570
2022-07-25T03:44:51.528Z,9.757597
2022-07-25T03:45:51.538Z,9.757506
2022-07-25T03:46:51.481Z,9.757411
2022-07-25T03:47:51.470Z,9.757488
2022-07-25T03:48:51.513Z,9.757649
2022-07-25T03:49:51.480Z,9.757557
2022-07-25T03:50:51.446Z,9.757629
2022-07-25T03:51:51.436Z,9.757533
2022-07-25T03:52:51.428Z,9.757612
2022-07-25T03:53:51.424Z,9.757724
2022-07-25T03:54:51.447Z,9.757621
2022-07-25T03:55:51.400Z,9.756913
2022-07-25T03:56:51.398Z,9.757180
2022-07-25T03:57:51.387Z,9.757445
2022-07-25T03:58:51.388Z,9.757482
2022-07-25T03:59:51.399Z,9.757415
2022-07-25T04:00:51.409Z,9.757441
2022-07-25T04:01:51.389Z,9.757437
2022-07-25T04:02:51.416Z,9.757465
2022-07-25T04:03:51.339Z,9.757488
2022-07-25T04:04:51.373Z,9.757471
2022-07-25T04:05:51.326Z,9.757468
2022-07-25T04:06:51.308Z,9.757468
2022-07-25T04:07:51.305Z,9.757460
2022-07-25T04:08:51.301Z,9.757457
2022-07-25T04:09:51.321Z,9.757464
2022-07-25T04:10:51.278Z,9.757424
2022-07-25T04:11:51.274Z,9.757438
2022-07-25T04:12:51.261Z,9.757448
2022-07-25T04:13:51.255Z,9.757474
2022-07-25T04:14:51.243Z,9.757467
2022-07-25T04:15:51.258Z,9.757471
2022-07-25T04:16:51.298Z,9.757409
2022-07-25T04:17:51.215Z,9.757512
2022-07-25T04:18:51.213Z,9.757465
2022-07-25T04:19:51.200Z,9.757460
2022-07-25T04:20:51.221Z,9.757432
2022-07-25T04:21:51.191Z,9.757492
2022-07-25T04:22:51.174Z,9.757573
2022-07-25T04:23:51.170Z,9.757623
2022-07-25T04:24:51.170Z,9.757335
2022-07-25T04:25:51.190Z,9.757669
2022-07-25T04:26:51.142Z,9.757411
2022-07-25T04:27:51.132Z,9.757662
2022-07-25T04:28:51.124Z,9.757339
2022-07-25T04:29:51.124Z,9.757351
2022-07-25T04:30:51.136Z,9.757557
2022-07-25T04:31:51.158Z,9.757785
2022-07-25T04:32:51.096Z,9.757974
2022-07-25T04:33:51.081Z,9.757878
2022-07-25T04:34:51.072Z,9.757681
2022-07-25T04:35:51.093Z,9.757387
2022-07-25T04:36:51.048Z,9.757550
2022-07-25T04:37:52.048Z,9.757728
2022-07-25T04:38:51.055Z,9.757690
2022-07-25T04:39:51.034Z,9.757656
2022-07-25T04:40:51.048Z,9.757765
2022-07-25T04:41:51.014Z,9.757724
2022-07-25T04:42:51.015Z,9.757853
2022-07-25T04:43:51.003Z,9.757825
2022-07-25T04:44:50.986Z,9.758084
2022-07-25T04:45:51.066Z,9.757859
2022-07-25T04:46:50.973Z,9.758068
2022-07-25T04:47:50.975Z,9.758121
2022-07-25T04:48:51.039Z,9.758186
2022-07-25T04:49:50.961Z,9.758237
2022-07-25T04:50:50.978Z,9.757957
2022-07-25T04:51:50.937Z,9.757799
2022-07-25T04:52:50.928Z,9.757881
2022-07-25T04:53:50.922Z,9.757965
2022-07-25T04:54:50.909Z,9.757813
2022-07-25T04:55:50.930Z,9.757709
2022-07-25T04:56:50.893Z,9.757775
2022-07-25T04:57:50.885Z,9.757654
2022-07-25T04:58:50.878Z,9.757420
2022-07-25T04:59:50.867Z,9.757846
2022-07-25T05:00:50.939Z,9.758048
2022-07-25T05:01:50.905Z,9.757799
2022-07-25T05:02:51.835Z,9.757743
2022-07-25T05:03:50.928Z,9.757630
2022-07-25T05:04:52.049Z,9.757685
2022-07-25T05:05:50.853Z,9.757717
2022-07-25T05:06:50.810Z,9.757786
2022-07-25T05:07:50.806Z,9.757830
2022-07-25T05:08:50.792Z,9.757772
2022-07-25T05:09:50.786Z,9.757754
2022-07-25T05:10:50.824Z,9.757782
2022-07-25T05:11:55.938Z,9.757757
2022-07-25T05:12:52.767Z,9.757691
2022-07-25T05:13:50.755Z,9.757664
2022-07-25T05:14:50.748Z,9.757626
2022-07-25T05:15:50.770Z,9.757525
2022-07-25T05:16:50.827Z,9.757486
2022-07-25T05:17:50.722Z,9.757509
2022-07-25T05:18:50.711Z,9.757732
2022-07-25T05:19:50.692Z,9.757622
2022-07-25T05:20:50.720Z,9.757746
2022-07-25T05:21:50.687Z,9.757794
2022-07-25T05:22:50.671Z,9.757729
2022-07-25T05:23:50.674Z,9.757581
2022-07-25T05:24:50.739Z,9.757453
2022-07-25T05:25:50.672Z,9.757258
2022-07-25T05:26:50.644Z,9.757298
2022-07-25T05:27:50.625Z,9.757629
2022-07-25T05:28:50.633Z,9.757494
2022-07-25T05:29:50.604Z,9.757512
2022-07-25T05:30:51.638Z,9.757513
2022-07-25T05:31:50.671Z,9.757734
2022-07-25T05:32:50.592Z,9.757928
2022-07-25T05:33:50.585Z,9.757640
2022-07-25T05:34:51.566Z,9.757637
2022-07-25T05:35:50.670Z,9.757512
2022-07-25T05:36:50.559Z,9.757330
2022-07-25T05:37:50.546Z,9.757403
2022-07-25T05:38:50.543Z,9.757365
2022-07-25T05:39:50.528Z,9.757406
2022-07-25T05:40:50.551Z,9.757379
2022-07-25T05:41:50.512Z,9.757428
2022-07-25T05:42:50.501Z,9.757342
2022-07-25T05:43:50.492Z,9.757414
2022-07-25T05:44:50.485Z,9.757421
2022-07-25T05:45:50.511Z,9.757417
2022-07-25T05:46:50.523Z,9.757339
2022-07-25T05:47:50.466Z,9.757399
2022-07-25T05:48:50.531Z,9.757400
2022-07-25T05:49:50.440Z,9.757406
2022-07-25T05:50:50.465Z,9.757491
2022-07-25T05:51:50.435Z,9.757549
2022-07-25T05:52:51.423Z,9.757357
2022-07-25T05:53:50.409Z,9.757461
2022-07-25T05:54:50.393Z,9.757419
2022-07-25T05:55:50.419Z,9.757458
2022-07-25T05:56:50.381Z,9.757485
2022-07-25T05:57:50.375Z,9.757498
2022-07-25T05:58:50.361Z,9.757442
2022-07-25T05:59:51.356Z,9.757444
2022-07-25T06:00:50.383Z,9.757489
2022-07-25T06:01:50.475Z,9.757529
2022-07-25T06:02:50.475Z,9.757376
2022-07-25T06:03:50.328Z,9.757404
2022-07-25T06:04:50.315Z,9.757442
2022-07-25T06:05:50.350Z,9.757582
2022-07-25T06:06:50.296Z,9.757565
2022-07-25T06:07:50.294Z,9.757406
2022-07-25T06:08:50.281Z,9.757429
2022-07-25T06:09:50.271Z,9.757504
2022-07-25T06:10:50.293Z,9.757486
2022-07-25T06:12:00.012Z,9.757414
2022-07-25T06:12:52.246Z,9.757480
2022-07-25T06:13:50.240Z,9.757306
2022-07-25T06:14:50.233Z,9.757401
2022-07-25T06:15:50.296Z,9.757352
2022-07-25T06:16:50.325Z,9.757370
2022-07-25T06:17:50.206Z,9.757404
2022-07-25T06:18:50.216Z,9.757421
2022-07-25T06:19:50.193Z,9.757398
2022-07-25T06:20:50.211Z,9.757347
2022-07-25T06:21:50.167Z,9.757403
2022-07-25T06:22:51.167Z,9.757482
2022-07-25T06:23:50.156Z,9.757494
2022-07-25T06:24:50.143Z,9.757389
2022-07-25T06:25:50.690Z,9.757440
2022-07-25T06:26:50.129Z,9.757458
2022-07-25T06:27:50.133Z,9.757456
2022-07-25T07:07:52.349Z,9.757535
2022-07-25T07:08:52.343Z,9.757233
2022-07-25T07:09:52.315Z,9.757188
2022-07-25T07:10:53.319Z,9.757100
2022-07-25T07:11:52.344Z,9.756886
2022-07-25T07:12:52.303Z,9.756908
2022-07-25T07:13:52.289Z,9.756908
2022-07-25T07:14:52.295Z,9.756728
2022-07-25T07:15:52.336Z,9.757050
2022-07-25T07:16:52.326Z,9.757509
2022-07-25T07:17:52.269Z,9.757345
2022-07-25T07:18:52.269Z,9.757036
2022-07-25T07:19:52.322Z,9.756968
2022-07-25T07:20:52.255Z,9.756934
2022-07-25T07:21:52.268Z,9.757305
2022-07-25T07:22:52.239Z,9.757388
2022-07-25T07:23:53.599Z,9.757262
2022-07-25T07:24:52.232Z,9.757207
2022-07-25T07:25:53.128Z,9.757207
2022-07-25T07:26:52.239Z,9.757207
2022-07-25T07:27:52.226Z,9.757263
2022-07-25T07:28:52.193Z,9.757231
2022-07-25T07:29:52.183Z,9.757229
2022-07-25T07:31:15.330Z,9.757260
2022-07-25T07:31:54.269Z,9.757257
2022-07-25T07:32:52.166Z,9.757260
2022-07-25T07:33:52.159Z,9.757180
2022-07-25T07:34:52.154Z,9.757312
2022-07-25T07:35:52.140Z,9.757307
2022-07-25T07:36:52.168Z,9.757251
2022-07-25T07:37:52.139Z,9.757346
2022-07-25T07:38:52.110Z,9.757241
2022-07-25T07:39:52.113Z,9.757288
2022-07-25T07:40:52.103Z,9.757327
2022-07-25T07:41:52.130Z,9.757366
2022-07-25T07:42:52.084Z,9.757454
2022-07-25T07:43:52.077Z,9.757733
2022-07-25T07:44:52.074Z,9.757337
2022-07-25T07:45:52.069Z,9.757625
2022-07-25T07:46:52.147Z,9.757423
2022-07-25T07:47:52.054Z,9.757551
2022-07-25T07:48:52.087Z,9.757460
2022-07-25T07:49:52.066Z,9.757409
2022-07-25T07:50:52.037Z,9.757304
2022-07-25T07:51:52.060Z,9.757370
2022-07-25T07:52:52.019Z,9.757562
2022-07-25T07:53:52.009Z,9.757533
2022-07-25T07:54:55.266Z,9.757511
2022-07-25T07:55:52.987Z,9.757453
2022-07-25T07:56:52.011Z,9.757534
2022-07-25T07:57:51.973Z,9.757640
2022-07-25T07:58:51.958Z,9.757578
2022-07-25T07:59:52.966Z,9.757504
2022-07-25T08:00:51.967Z,9.757463
2022-07-25T08:01:52.019Z,9.757517
2022-07-25T08:02:52.028Z,9.757402
2022-07-25T08:03:51.935Z,9.757371
2022-07-25T08:04:51.918Z,9.757604
2022-07-25T08:05:51.994Z,9.757574
2022-07-25T08:06:51.937Z,9.757338
2022-07-25T08:07:51.899Z,9.757293
2022-07-25T08:08:51.895Z,9.757391
2022-07-25T08:09:51.882Z,9.757443
2022-07-25T08:10:55.647Z,9.757444
2022-07-25T08:11:53.900Z,9.757402
2022-07-25T08:12:51.865Z,9.757431
2022-07-25T08:13:51.857Z,9.757456
2022-07-25T08:14:51.852Z,9.757357
2022-07-25T08:16:12.908Z,9.757228
2022-07-25T08:16:51.871Z,9.757454
2022-07-25T08:17:51.839Z,9.757627
2022-07-25T08:18:51.827Z,9.757286
2022-07-25T08:19:51.820Z,9.757513
2022-07-25T08:20:51.810Z,9.757479
2022-07-25T08:21:51.836Z,9.757421
2022-07-25T08:22:56.411Z,9.757281
2022-07-25T08:23:53.797Z,9.757306
2022-07-25T08:24:51.786Z,9.757385
2022-07-25T08:25:51.779Z,9.757457
2022-07-25T08:26:51.792Z,9.757467
2022-07-25T08:27:51.763Z,9.757439
2022-07-25T08:29:04.904Z,9.757424
2022-07-25T08:29:53.751Z,9.757495
2022-07-25T08:30:51.805Z,9.757678
2022-07-25T08:31:51.880Z,9.757569
2022-07-25T08:32:51.729Z,9.757432
2022-07-25T08:33:51.718Z,9.757418
2022-07-25T08:34:51.713Z,9.757443
2022-07-25T08:35:51.727Z,9.757392
2022-07-25T08:36:54.895Z,9.757318
2022-07-25T08:37:52.693Z,9.757465
2022-07-25T08:38:51.693Z,9.757530
2022-07-25T08:39:51.682Z,9.757512
2022-07-25T08:40:51.671Z,9.757540
2022-07-25T08:41:51.693Z,9.757668
2022-07-25T08:42:51.658Z,9.757521
2022-07-25T08:43:51.654Z,9.757579
2022-07-25T08:44:51.650Z,9.757464
2022-07-25T08:45:51.635Z,9.757438
2022-07-25T08:46:51.758Z,9.757448
2022-07-25T08:47:51.636Z,9.757535
2022-07-25T08:48:51.683Z,9.757483
2022-07-25T08:49:51.610Z,9.757446
2022-07-25T08:50:51.601Z,9.757417
2022-07-25T08:51:51.794Z,9.757421
2022-07-25T08:53:00.720Z,9.757491
2022-07-25T08:53:52.582Z,9.757421
2022-07-25T08:54:51.579Z,9.757503
2022-07-25T08:55:51.574Z,9.757467
2022-07-25T08:56:51.598Z,9.757381
2022-07-25T08:57:51.557Z,9.757426
2022-07-25T08:58:51.556Z,9.757474
2022-07-25T08:59:51.550Z,9.757442
2022-07-25T09:00:51.541Z,9.757432
2022-07-25T09:01:51.629Z,9.757215
2022-07-25T09:02:51.558Z,9.757315
2022-07-25T09:03:51.522Z,9.757540
2022-07-25T09:04:51.515Z,9.757338
2022-07-25T09:05:51.513Z,9.757326
2022-07-25T09:06:51.547Z,9.757447
2022-07-25T09:07:51.495Z,9.757293
2022-07-25T09:08:51.480Z,9.757500
2022-07-25T09:09:51.477Z,9.757436
2022-07-25T09:10:51.472Z,9.757492
2022-07-25T09:12:12.603Z,9.757524
2022-07-25T09:12:52.452Z,9.757481
2022-07-25T09:13:51.451Z,9.757444
2022-07-25T09:14:51.446Z,9.757479
2022-07-25T09:15:51.483Z,9.757311
2022-07-25T09:16:51.438Z,9.757189
2022-07-25T09:17:51.452Z,9.757430
2022-07-25T09:18:51.426Z,9.757469
2022-07-25T09:19:51.411Z,9.757482
2022-07-25T09:20:52.409Z,9.757370
2022-07-25T09:21:51.400Z,9.757448
2022-07-25T09:22:51.429Z,9.757303
2022-07-25T09:23:51.397Z,9.757416
2022-07-25T09:24:51.380Z,9.757360
2022-07-25T09:25:51.392Z,9.757530
2022-07-25T09:26:51.377Z,9.757565
2022-07-25T09:27:51.394Z,9.757481
2022-07-25T09:28:51.367Z,9.757338
2022-07-25T09:29:51.349Z,9.757389
2022-07-25T09:30:51.384Z,9.757386
2022-07-25T09:31:51.330Z,9.757299
2022-07-25T09:32:51.361Z,9.757384
2022-07-25T09:33:51.326Z,9.757350
2022-07-25T09:34:51.324Z,9.757688
2022-07-25T09:35:51.316Z,9.757463
2022-07-25T09:36:51.330Z,9.757503
2022-07-25T09:37:51.336Z,9.757599
2022-07-25T09:38:51.305Z,9.757527
2022-07-25T09:39:51.287Z,9.757528
2022-07-25T09:40:51.280Z,9.757482
2022-07-25T09:41:51.275Z,9.757432
2022-07-25T09:42:51.297Z,9.757539
2022-07-25T09:43:51.272Z,9.757423
2022-07-25T09:44:51.260Z,9.757367
2022-07-25T09:45:51.319Z,9.757428
2022-07-25T09:46:51.302Z,9.757752
2022-07-25T09:47:51.312Z,9.757467
2022-07-25T09:48:51.291Z,9.757563
2022-07-25T09:49:53.742Z,9.757319
2022-07-25T09:50:51.216Z,9.757264
2022-07-25T09:51:51.218Z,9.757463
2022-07-25T09:52:51.235Z,9.757523
2022-07-25T09:53:51.191Z,9.757673
2022-07-25T09:54:51.190Z,9.757376
2022-07-25T09:55:51.199Z,9.757368
2022-07-25T09:56:52.186Z,9.757277
2022-07-25T09:57:51.204Z,9.757323
2022-07-25T09:58:51.159Z,9.757401
2022-07-25T09:59:51.157Z,9.757408
2022-07-25T10:00:51.143Z,9.757348
2022-07-25T10:01:51.297Z,9.757310
2022-07-25T10:02:51.306Z,9.757319
2022-07-25T10:03:51.145Z,9.757426
2022-07-25T10:04:51.121Z,9.757397
2022-07-25T10:05:51.119Z,9.757530
2022-07-25T10:06:51.114Z,9.757375
2022-07-25T10:07:51.140Z,9.757419
2022-07-25T10:08:51.113Z,9.757509
2022-07-25T10:09:51.088Z,9.757445
2022-07-25T10:10:51.077Z,9.757412
2022-07-25T10:11:51.076Z,9.757342
2022-07-25T10:12:51.116Z,9.757298
2022-07-25T10:13:51.068Z,9.757321
2022-07-25T10:14:51.053Z,9.757453
2022-07-25T10:15:51.052Z,9.757532
2022-07-25T10:16:51.082Z,9.757490
2022-07-25T10:17:51.098Z,9.757431
2022-07-25T10:18:51.043Z,9.757439
2022-07-25T10:19:55.441Z,9.757411
2022-07-25T10:20:53.014Z,9.757487
2022-07-25T10:21:51.021Z,9.757490
2022-07-25T10:22:58.675Z,9.757525
2022-07-25T10:23:52.999Z,9.757550
2022-07-25T10:24:52.000Z,9.757545
2022-07-25T10:25:50.992Z,9.757577
2022-07-25T10:26:50.989Z,9.757609
2022-07-25T10:27:51.004Z,9.757439
2022-07-25T10:28:50.967Z,9.757645
2022-07-25T10:29:50.956Z,9.757508
2022-07-25T10:30:50.978Z,9.757472
2022-07-25T10:31:51.954Z,9.757445
2022-07-25T10:32:51.964Z,9.757442
2022-07-25T10:33:50.925Z,9.757460
2022-07-25T10:34:50.931Z,9.757530
2022-07-25T10:35:50.921Z,9.757573
2022-07-25T10:36:50.911Z,9.757555
2022-07-25T10:37:50.951Z,9.757696
2022-07-25T10:38:50.897Z,9.757876
2022-07-25T10:39:50.893Z,9.757811
2022-07-25T10:40:50.883Z,9.757777
2022-07-25T10:41:50.892Z,9.757704
2022-07-25T10:42:50.867Z,9.757702
2022-07-25T10:43:50.886Z,9.757849
2022-07-25T10:44:50.854Z,9.757730
2022-07-25T10:45:50.913Z,9.757494
2022-07-25T10:46:50.843Z,9.757487
2022-07-25T10:47:50.841Z,9.757506
2022-07-25T10:48:50.877Z,9.757460
2022-07-25T10:50:14.494Z,9.757505
2022-07-25T10:50:55.828Z,9.757476
2022-07-25T10:51:51.806Z,9.757460
2022-07-25T10:52:50.809Z,9.757675
2022-07-25T10:53:50.825Z,9.757643
2022-07-25T10:54:50.799Z,9.757636
2022-07-25T10:56:05.078Z,9.757725
2022-07-25T10:56:52.774Z,9.757810
2022-07-25T10:58:16.149Z,9.757931
2022-07-25T10:58:52.801Z,9.757730
2022-07-25T10:59:50.762Z,9.757900
2022-07-25T11:00:50.850Z,9.758410
2022-07-25T11:01:51.091Z,9.757730
2022-07-25T11:02:50.784Z,9.757526
2022-07-25T11:03:50.762Z,9.757635
2022-07-25T11:04:50.759Z,9.757642
2022-07-25T11:05:50.742Z,9.757685
2022-07-25T11:06:50.715Z,9.757597
2022-07-25T11:08:11.519Z,9.757372
2022-07-25T11:08:52.732Z,9.757411
2022-07-25T11:09:50.684Z,9.757495
2022-07-25T11:10:50.677Z,9.757507
2022-07-25T11:11:50.686Z,9.757495
2022-07-25T11:12:50.665Z,9.757475
2022-07-25T11:13:50.696Z,9.757626
2022-07-25T11:14:50.655Z,9.757956
2022-07-25T11:15:50.656Z,9.757869
2022-07-25T11:16:50.753Z,9.757900
2022-07-25T11:17:50.636Z,9.757822
2022-07-25T11:18:50.697Z,9.757635
2022-07-25T11:19:50.627Z,9.757668
2022-07-25T11:20:50.618Z,9.757630
2022-07-25T11:21:50.615Z,9.757571
2022-07-25T11:22:50.604Z,9.757609
2022-07-25T11:23:50.629Z,9.757562
2022-07-25T11:24:50.591Z,9.757567
2022-07-25T11:26:00.189Z,9.757545
2022-07-25T11:26:51.591Z,9.757565
2022-07-25T11:27:50.570Z,9.757771
2022-07-25T11:28:50.606Z,9.758043
2022-07-25T11:29:50.568Z,9.758134
2022-07-25T11:30:50.566Z,9.757913
2022-07-25T11:31:50.626Z,9.757697
2022-07-25T11:32:50.546Z,9.757629
2022-07-25T11:33:50.573Z,9.757631
2022-07-25T11:34:50.564Z,9.757615
2022-07-25T11:35:50.560Z,9.757668
2022-07-25T11:36:50.543Z,9.757430
2022-07-25T11:37:50.514Z,9.757420
2022-07-25T11:38:50.505Z,9.757418
2022-07-25T11:39:50.540Z,9.757423
2022-07-25T11:40:50.499Z,9.757444
2022-07-25T11:41:50.497Z,9.757446
2022-07-25T11:42:50.494Z,9.757460
2022-07-25T11:43:50.487Z,9.757390
2022-07-25T11:44:50.503Z,9.757460
2022-07-25T11:45:50.518Z,9.757442
2022-07-25T11:46:50.462Z,9.757427
2022-07-25T11:47:50.462Z,9.757399
2022-07-25T11:48:50.528Z,9.757439
2022-07-25T11:49:50.474Z,9.757440
2022-07-25T11:50:50.440Z,9.757421
2022-07-25T11:51:50.437Z,9.757408
2022-07-25T11:52:51.424Z,9.757398
2022-07-25T11:53:50.413Z,9.757418
2022-07-25T11:54:50.451Z,9.757361
2022-07-25T11:55:50.408Z,9.757295
2022-07-25T11:56:50.431Z,9.757403
2022-07-25T11:57:50.389Z,9.757452
2022-07-25T11:58:50.395Z,9.757470
2022-07-25T11:59:50.412Z,9.757470
2022-07-25T12:00:50.372Z,9.757445
2022-07-25T12:01:50.411Z,9.757375
2022-07-25T12:02:51.472Z,9.757323
2022-07-25T12:03:50.419Z,9.757354
2022-07-25T12:04:50.420Z,9.757525
2022-07-25T12:05:50.355Z,9.757431
2022-07-25T12:06:50.336Z,9.757316
2022-07-25T12:07:50.323Z,9.757432
2022-07-25T12:08:50.334Z,9.757520
2022-07-25T12:09:50.346Z,9.757489
2022-07-25T12:10:50.312Z,9.757518
2022-07-25T12:11:50.317Z,9.757478
2022-07-25T12:12:50.383Z,9.757591
2022-07-25T12:13:50.300Z,9.757360
2022-07-25T12:14:50.317Z,9.757431
2022-07-25T12:15:50.282Z,9.757474
2022-07-25T12:16:50.320Z,9.757446
2022-07-25T12:17:50.264Z,9.757393
2022-07-25T12:18:50.253Z,9.757360
2022-07-25T12:19:50.274Z,9.757434
2022-07-25T12:20:50.269Z,9.757513
2022-07-25T12:21:50.238Z,9.757516
2022-07-25T12:22:50.226Z,9.757485
2022-07-25T12:23:50.216Z,9.757350